Time;durP1;ratioP1;P1;durP2;ratioP2;P2;SDS_P1;SDS_P2;PMS_P1;PMS_P2;Temp;Humidity;BMP_temperature;BMP_pressure;BME280_temperature;BME280_humidity;BME280_pressure;Samples;Min_cycle;Max_cycle;Signal;HPM_P1;HPM_P2
2023/10/11 09:05:28;;;;;;;61.75;48.15;;;;;;;;;;5095077;27;20419;-81
2023/10/11 09:07:52;;;;;;;67.97;49.97;;;;;;;;;;5075532;28;20427;-82
2023/10/11 09:10:28;;;;;;;69.17;52.00;;;;;;;;;;5057137;28;20024;-82
2023/10/11 09:12:57;;;;;;;63.80;47.40;;;;;;;;;;5075273;28;20289;-82
2023/10/11 09:15:24;;;;;;;73.82;48.45;;;;;;;;;;5056259;28;20024;-82
2023/10/11 09:18:12;;;;;;;69.82;51.33;;;;;;;;;;5074386;28;20037;-81
2023/10/11 09:20:40;;;;;;;67.28;48.08;;;;;;;;;;5073195;28;20036;-81
2023/10/11 09:23:08;;;;;;;70.65;47.58;;;;;;;;;;5072549;28;20636;-81
2023/10/11 09:26:02;;;;;;;68.90;47.55;;;;;;;;;;5071997;28;20522;-81
2023/10/11 09:28:33;;;;;;;73.80;48.05;;;;;;;;;;5073008;28;20406;-81
2023/10/11 09:31:14;;;;;;;79.47;48.38;;;;;;;;;;5074271;28;20039;-81
2023/10/11 09:33:41;;;;;;;73.70;49.78;;;;;;;;;;5073352;28;20110;-81
2023/10/11 09:36:07;;;;;;;;;;;;;;;;;;5074666;28;20074;-81
2023/10/11 09:38:40;;;;;;;64.90;45.90;;;;;;;;;;5074417;28;19916;-81
2023/10/11 09:41:07;;;;;;;82.82;49.60;;;;;;;;;;5073026;28;20060;-81
2023/10/11 09:43:44;;;;;;;67.00;48.78;;;;;;;;;;5070884;28;20021;-81
2023/10/11 09:46:11;;;;;;;70.35;48.30;;;;;;;;;;5072893;28;20029;-81
2023/10/11 09:48:41;;;;;;;71.65;50.25;;;;;;;;;;5073647;28;20030;-81
2023/10/11 09:51:14;;;;;;;74.43;50.28;;;;;;;;;;5072170;28;20033;-81
2023/10/11 09:53:50;;;;;;;67.28;48.17;;;;;;;;;;5069418;28;20036;-81
2023/10/11 09:56:30;;;;;;;71.90;50.47;;;;;;;;;;5071200;28;20025;-81
2023/10/11 09:59:05;;;;;;;71.38;47.83;;;;;;;;;;5069960;28;20056;-81
2023/10/11 10:01:47;;;;;;;74.28;48.00;;;;;;;;;;5070189;28;20437;-81
2023/10/11 10:04:13;;;;;;;66.05;45.85;;;;;;;;;;5067242;28;20056;-81
2023/10/11 10:06:59;;;;;;;62.17;43.80;;;;;;;;;;5040896;28;20017;-81
2023/10/11 10:09:26;;;;;;;61.72;44.13;;;;;;;;;;5059810;28;20263;-81
2023/10/11 10:11:52;;;;;;;;;;;;;;;;;;5060178;28;20033;-81
2023/10/11 10:14:25;;;;;;;55.70;40.65;;;;;;;;;;5057882;28;19912;-81
2023/10/11 10:17:12;;;;;;;58.47;40.50;;;;;;;;;;5061971;28;20067;-81
2023/10/11 10:19:39;;;;;;;56.20;40.25;;;;;;;;;;5060567;28;20032;-82
2023/10/11 10:22:14;;;;;;;59.63;42.03;;;;;;;;;;5049103;28;20486;-82
2023/10/11 10:24:41;;;;;;;57.88;41.13;;;;;;;;;;5058670;28;20055;-82
2023/10/11 10:27:12;;;;;;;;;;;;;;;;;;5038662;28;20103;-82
2023/10/11 10:30:00;;;;;;;60.00;38.42;;;;;;;;;;5046975;28;19913;-84
2023/10/11 10:32:27;;;;;;;58.38;42.20;;;;;;;;;;5017650;28;20029;-83
2023/10/11 10:35:12;;;;;;;52.88;38.90;;;;;;;;;;5036384;28;20391;-84
2023/10/11 10:37:47;;;;;;;55.08;41.25;;;;;;;;;;5043654;28;20479;-84
2023/10/11 10:40:29;;;;;;;57.83;38.72;;;;;;;;;;5043206;28;20036;-82
2023/10/11 10:43:08;;;;;;;54.75;40.33;;;;;;;;;;5065500;28;20033;-82
2023/10/11 10:45:35;;;;;;;61.92;39.53;;;;;;;;;;5068579;28;20025;-81
2023/10/11 10:48:18;;;;;;;52.92;38.20;;;;;;;;;;5065811;28;20108;-82
2023/10/11 10:51:01;;;;;;;56.50;39.20;;;;;;;;;;5064896;28;20454;-82
2023/10/11 10:53:37;;;;;;;52.67;38.97;;;;;;;;;;5060377;28;20021;-81
2023/10/11 10:56:04;;;;;;;58.50;40.40;;;;;;;;;;5057795;28;20096;-82
2023/10/11 10:58:30;;;;;;;58.20;41.08;;;;;;;;;;5063698;28;20024;-81
2023/10/11 11:00:59;;;;;;;53.60;38.97;;;;;;;;;;5060031;28;20103;-81
2023/10/11 11:03:32;;;;;;;60.13;41.38;;;;;;;;;;5069528;28;20100;-82
2023/10/11 11:06:01;;;;;;;58.10;39.50;;;;;;;;;;5068059;28;20111;-82
2023/10/11 11:08:37;;;;;;;58.03;39.92;;;;;;;;;;5074760;28;20029;-82
2023/10/11 11:13:48;;;;;;;61.08;40.60;;;;;;;;;;5052362;28;20451;-82
2023/10/11 11:16:26;;;;;;;55.60;41.33;;;;;;;;;;5064452;28;20107;-82
2023/10/11 11:18:53;;;;;;;63.50;39.22;;;;;;;;;;5054823;28;20059;-82
2023/10/11 11:21:29;;;;;;;;;;;;;;;;;;5060662;28;20043;-82
2023/10/11 11:23:56;;;;;;;53.65;38.90;;;;;;;;;;5054741;28;19936;-82
2023/10/11 11:26:23;;;;;;;58.83;38.85;;;;;;;;;;5055231;28;20036;-81
2023/10/11 11:29:08;;;;;;;55.10;39.75;;;;;;;;;;5058280;28;20037;-81
2023/10/11 11:31:51;;;;;;;51.85;38.63;;;;;;;;;;5053769;28;20120;-82
2023/10/11 11:34:27;;;;;;;58.40;41.30;;;;;;;;;;5044644;28;20053;-81
2023/10/11 11:36:57;;;;;;;54.00;37.75;;;;;;;;;;5070955;28;20036;-81
2023/10/11 11:42:19;;;;;;;52.63;37.17;;;;;;;;;;5053884;28;20039;-81
2023/10/11 11:44:49;;;;;;;61.58;38.35;;;;;;;;;;5070486;28;20067;-82
2023/10/11 11:47:21;;;;;;;63.72;41.03;;;;;;;;;;5066529;28;20021;-82
2023/10/11 11:49:47;;;;;;;55.40;37.95;;;;;;;;;;5053716;28;20029;-81
2023/10/11 11:52:16;;;;;;;60.75;39.15;;;;;;;;;;5054276;28;20069;-81
2023/10/11 11:54:43;;;;;;;49.50;38.28;;;;;;;;;;5055570;28;20037;-81
2023/10/11 11:57:10;;;;;;;54.10;39.80;;;;;;;;;;5069357;28;20395;-81
2023/10/11 11:59:38;;;;;;;49.63;37.47;;;;;;;;;;5073104;28;20467;-81
2023/10/11 12:02:09;;;;;;;53.03;37.50;;;;;;;;;;5059374;28;20025;-81
2023/10/11 12:04:36;;;;;;;58.00;39.58;;;;;;;;;;5058531;28;20047;-81
2023/10/11 12:07:09;;;;;;;55.30;38.10;;;;;;;;;;5048552;28;20121;-81
2023/10/11 12:09:37;;;;;;;48.50;35.75;;;;;;;;;;5063072;28;20036;-81
2023/10/11 12:12:05;;;;;;;51.38;37.03;;;;;;;;;;5073662;28;20028;-81
2023/10/11 12:14:38;;;;;;;52.83;37.90;;;;;;;;;;5073949;28;20462;-81
2023/10/11 12:17:10;;;;;;;57.97;37.05;;;;;;;;;;5056569;28;20036;-81
2023/10/11 12:19:43;;;;;;;68.25;38.33;;;;;;;;;;5056101;28;20059;-81
2023/10/11 12:22:13;;;;;;;60.22;36.72;;;;;;;;;;5062174;28;20380;-81
2023/10/11 12:24:44;;;;;;;55.03;37.95;;;;;;;;;;5054554;28;20048;-81
2023/10/11 12:27:13;;;;;;;51.30;36.42;;;;;;;;;;5053820;28;20496;-82
2023/10/11 12:29:40;;;;;;;47.85;35.40;;;;;;;;;;5054761;28;20441;-82
2023/10/11 12:32:07;;;;;;;52.50;35.40;;;;;;;;;;5068834;28;20036;-81
2023/10/11 12:34:33;;;;;;;51.05;37.50;;;;;;;;;;5070221;28;20032;-81
2023/10/11 12:37:02;;;;;;;56.15;36.53;;;;;;;;;;5054722;28;20028;-81
2023/10/11 12:39:33;;;;;;;58.00;35.65;;;;;;;;;;5053565;28;20120;-82
2023/10/11 12:41:59;;;;;;;44.50;35.25;;;;;;;;;;5054210;28;20025;-81
2023/10/11 12:44:28;;;;;;;52.20;34.63;;;;;;;;;;5054987;28;20036;-82
2023/10/11 12:47:00;;;;;;;50.20;34.22;;;;;;;;;;5072848;28;20409;-82
2023/10/11 12:49:27;;;;;;;46.83;34.00;;;;;;;;;;5069939;28;20033;-82
2023/10/11 12:51:54;;;;;;;48.80;33.20;;;;;;;;;;5055596;28;20027;-82
2023/10/11 12:54:20;;;;;;;44.10;35.30;;;;;;;;;;5037001;28;20040;-82
2023/10/11 12:56:47;;;;;;;43.55;35.95;;;;;;;;;;5055833;28;20029;-82
2023/10/11 12:59:13;;;;;;;;;;;;;;;;;;5075442;28;20036;-82
2023/10/11 13:01:56;;;;;;;44.67;32.38;;;;;;;;;;5062595;28;19912;-82
2023/10/11 13:04:36;;;;;;;42.58;31.33;;;;;;;;;;5054810;28;20068;-81
2023/10/11 13:07:10;;;;;;;42.72;31.63;;;;;;;;;;5072253;28;20077;-82
2023/10/11 13:09:36;;;;;;;51.33;32.95;;;;;;;;;;5057756;28;20052;-82
2023/10/11 13:12:06;;;;;;;43.20;32.90;;;;;;;;;;5076231;28;20100;-82
2023/10/11 13:14:33;;;;;;;38.40;29.80;;;;;;;;;;5074766;28;20483;-82
2023/10/11 13:17:00;;;;;;;42.30;32.70;;;;;;;;;;5060703;28;20033;-82
2023/10/11 13:19:27;;;;;;;44.38;32.83;;;;;;;;;;5073933;28;20028;-82
2023/10/11 13:21:54;;;;;;;52.60;32.55;;;;;;;;;;5055672;28;20445;-82
2023/10/11 13:24:24;;;;;;;47.40;31.42;;;;;;;;;;5037735;28;20029;-82
2023/10/11 13:26:55;;;;;;;44.60;31.92;;;;;;;;;;5055481;28;20040;-82
2023/10/11 13:29:21;;;;;;;42.42;31.20;;;;;;;;;;5070183;28;20032;-83
2023/10/11 13:31:53;;;;;;;40.55;30.52;;;;;;;;;;5040418;28;20037;-81
2023/10/11 13:34:19;;;;;;;44.30;31.58;;;;;;;;;;5035654;28;20060;-82
2023/10/11 13:36:46;;;;;;;45.17;30.23;;;;;;;;;;5049007;28;20048;-81
2023/10/11 13:39:27;;;;;;;38.08;30.13;;;;;;;;;;5073898;28;20036;-84
2023/10/11 13:41:57;;;;;;;41.22;30.88;;;;;;;;;;5073881;28;20029;-82
2023/10/11 13:44:24;;;;;;;43.40;28.73;;;;;;;;;;5061378;28;20078;-85
2023/10/11 13:46:51;;;;;;;50.63;38.33;;;;;;;;;;5039282;28;20033;-82
2023/10/11 13:49:25;;;;;;;56.63;39.83;;;;;;;;;;5058268;28;20059;-81
2023/10/11 13:51:52;;;;;;;39.75;28.52;;;;;;;;;;5059903;28;20032;-82
2023/10/11 13:54:31;;;;;;;38.60;28.55;;;;;;;;;;5063428;28;20033;-82
2023/10/11 13:57:00;;;;;;;35.80;28.40;;;;;;;;;;5069871;28;20024;-82
2023/10/11 13:59:36;;;;;;;42.30;30.35;;;;;;;;;;5067436;28;20052;-83
2023/10/11 14:05:13;;;;;;;35.65;29.05;;;;;;;;;;5038936;28;20522;-80
2023/10/11 14:08:02;;;;;;;44.80;29.50;;;;;;;;;;5038101;28;20056;-80
2023/10/11 14:10:30;;;;;;;40.25;30.33;;;;;;;;;;5037633;28;20407;-80
2023/10/11 14:13:07;;;;;;;47.70;30.40;;;;;;;;;;5038709;28;20519;-80
2023/10/11 14:15:35;;;;;;;41.67;30.83;;;;;;;;;;5037669;28;20083;-80
2023/10/11 14:18:03;;;;;;;46.05;28.05;;;;;;;;;;5037592;28;20025;-81
2023/10/11 14:20:32;;;;;;;36.28;28.35;;;;;;;;;;5035198;28;20037;-80
2023/10/11 14:23:04;;;;;;;43.00;30.23;;;;;;;;;;5037238;28;20044;-81
2023/10/11 14:25:31;;;;;;;40.22;29.35;;;;;;;;;;5036867;28;20396;-80
2023/10/11 14:27:57;;;;;;;43.45;29.75;;;;;;;;;;5037628;28;20129;-82
2023/10/11 14:30:23;;;;;;;;;;;;;;;;;;5036946;28;20522;-81
2023/10/11 14:32:50;;;;;;;46.60;30.60;;;;;;;;;;5036369;28;19913;-82
2023/10/11 14:35:17;;;;;;;40.60;29.30;;;;;;;;;;5038282;28;20037;-80
2023/10/11 14:37:43;;;;;;;41.03;30.42;;;;;;;;;;5037574;28;20014;-81
2023/10/11 14:40:17;;;;;;;45.88;31.92;;;;;;;;;;5036245;28;20026;-80
2023/10/11 14:42:43;;;;;;;38.65;31.35;;;;;;;;;;5037685;28;20058;-80
2023/10/11 14:45:12;;;;;;;39.10;29.23;;;;;;;;;;5036787;28;20052;-80
2023/10/11 14:47:45;;;;;;;33.78;28.48;;;;;;;;;;5037737;28;20052;-80
2023/10/11 14:50:25;;;;;;;44.58;30.08;;;;;;;;;;5036533;28;20037;-80
2023/10/11 14:52:52;;;;;;;40.70;28.52;;;;;;;;;;5037970;28;20065;-80
2023/10/11 14:55:20;;;;;;;38.83;29.42;;;;;;;;;;5036275;28;20021;-80
2023/10/11 14:57:55;;;;;;;38.05;30.25;;;;;;;;;;5038731;28;20156;-80
2023/10/11 15:00:22;;;;;;;37.63;30.73;;;;;;;;;;5039416;28;20045;-81
2023/10/11 15:02:50;;;;;;;41.30;27.77;;;;;;;;;;5038378;28;20112;-81
2023/10/11 15:05:17;;;;;;;38.17;27.92;;;;;;;;;;5037736;28;20060;-81
2023/10/11 15:07:43;;;;;;;40.58;29.70;;;;;;;;;;5037431;28;20053;-81
2023/10/11 15:10:12;;;;;;;42.00;29.33;;;;;;;;;;5036787;28;20029;-80
2023/10/11 15:12:42;;;;;;;48.40;29.08;;;;;;;;;;5037403;28;20037;-80
2023/10/11 15:15:08;;;;;;;39.83;27.90;;;;;;;;;;5035865;28;20400;-80
2023/10/11 15:17:35;;;;;;;43.95;29.40;;;;;;;;;;5035945;28;20020;-80
2023/10/11 15:20:01;;;;;;;;;;;;;;;;;;5037576;28;20539;-81
2023/10/11 15:22:28;;;;;;;42.13;30.45;;;;;;;;;;5038589;28;20398;-80
2023/10/11 15:24:54;;;;;;;44.17;30.27;;;;;;;;;;5037775;28;20033;-80
2023/10/11 15:27:21;;;;;;;43.25;29.77;;;;;;;;;;5035337;28;20654;-83
2023/10/11 15:29:47;;;;;;;39.25;29.83;;;;;;;;;;5034681;28;20025;-81
2023/10/11 15:32:13;;;;;;;40.35;28.13;;;;;;;;;;5038400;28;20026;-81
2023/10/11 15:34:40;;;;;;;;;;;;;;;;;;5037206;28;20030;-81
2023/10/11 15:37:09;;;;;;;39.13;29.10;;;;;;;;;;5037551;28;19909;-80
2023/10/11 15:39:35;;;;;;;47.58;31.20;;;;;;;;;;5035748;28;20025;-80
2023/10/11 15:42:06;;;;;;;;;;;;;;;;;;5035583;28;20025;-80
2023/10/11 15:44:38;;;;;;;44.40;30.90;;;;;;;;;;5036189;28;19909;-80
2023/10/11 15:47:04;;;;;;;65.90;30.50;;;;;;;;;;5034167;28;20033;-79
2023/10/11 15:49:36;;;;;;;41.10;30.52;;;;;;;;;;5037170;28;20056;-81
2023/10/11 15:52:04;;;;;;;40.20;29.70;;;;;;;;;;5041876;28;20029;-80
2023/10/11 15:54:31;;;;;;;75.43;59.67;;;;;;;;;;5051277;28;20040;-79
2023/10/11 15:57:01;;;;;;;50.03;33.58;;;;;;;;;;5053526;28;20021;-79
2023/10/11 15:59:28;;;;;;;43.10;30.65;;;;;;;;;;5056744;28;20029;-79
2023/10/11 16:01:55;;;;;;;45.25;29.60;;;;;;;;;;5056339;28;20039;-79
2023/10/11 16:04:22;;;;;;;;;;;;;;;;;;5056996;28;20029;-79
2023/10/11 16:06:51;;;;;;;48.55;29.95;;;;;;;;;;5054393;28;19913;-79
2023/10/11 16:09:21;;;;;;;48.75;30.35;;;;;;;;;;5055609;28;20263;-79
2023/10/11 16:11:47;;;;;;;50.35;33.50;;;;;;;;;;5054236;28;20037;-79
2023/10/11 16:14:14;;;;;;;42.20;29.38;;;;;;;;;;5054444;28;20491;-79
2023/10/11 16:16:40;;;;;;;44.33;31.23;;;;;;;;;;5053656;28;20032;-79
2023/10/11 16:19:08;;;;;;;42.63;30.40;;;;;;;;;;5054862;28;20025;-79
2023/10/11 16:21:34;;;;;;;55.00;30.67;;;;;;;;;;5039648;28;20028;-80
2023/10/11 16:24:00;;;;;;;49.67;31.85;;;;;;;;;;5058048;28;20036;-81
2023/10/11 16:26:29;;;;;;;56.70;32.35;;;;;;;;;;5047899;28;20534;-83
2023/10/11 16:28:56;;;;;;;41.45;30.52;;;;;;;;;;5061332;28;20084;-81
2023/10/11 16:31:22;;;;;;;46.78;31.45;;;;;;;;;;5070134;28;20406;-83
2023/10/11 16:33:52;;;;;;;52.47;32.55;;;;;;;;;;5079716;28;20051;-83
2023/10/11 16:36:19;;;;;;;48.28;32.03;;;;;;;;;;5067502;28;20057;-83
2023/10/11 16:38:46;;;;;;;54.47;33.65;;;;;;;;;;5072621;28;20107;-82
2023/10/11 16:41:12;;;;;;;49.63;31.73;;;;;;;;;;5085421;28;20020;-82
2023/10/11 16:43:41;;;;;;;44.50;31.80;;;;;;;;;;5071582;28;20059;-82
2023/10/11 16:46:08;;;;;;;52.70;33.25;;;;;;;;;;5044253;28;20045;-83
2023/10/11 16:48:34;;;;;;;;;;;;;;;;;;5059778;28;20123;-83
2023/10/11 16:51:05;;;;;;;61.95;34.20;;;;;;;;;;5061531;28;19909;-82
2023/10/11 16:53:38;;;;;;;52.92;36.47;;;;;;;;;;5057828;28;20025;-82
2023/10/11 16:56:11;;;;;;;52.67;32.90;;;;;;;;;;5054282;28;20032;-82
2023/10/11 16:58:41;;;;;;;45.70;32.42;;;;;;;;;;5070461;28;20032;-82
2023/10/11 17:01:08;;;;;;;52.03;34.28;;;;;;;;;;5053107;28;20033;-82
2023/10/11 17:03:34;;;;;;;;;;;;;;;;;;5054586;28;20106;-83
2023/10/11 17:06:03;;;;;;;44.97;32.55;;;;;;;;;;5057571;28;19916;-82
2023/10/11 17:08:30;;;;;;;57.17;35.63;;;;;;;;;;5055785;28;20040;-82
2023/10/11 17:10:59;;;;;;;48.75;35.10;;;;;;;;;;5055506;28;20108;-82
2023/10/11 17:13:27;;;;;;;54.83;35.78;;;;;;;;;;5056059;28;20068;-83
2023/10/11 17:15:54;;;;;;;56.58;36.28;;;;;;;;;;5064009;28;20035;-83
2023/10/11 17:18:29;;;;;;;53.22;35.47;;;;;;;;;;5069139;28;20029;-82
2023/10/11 17:20:58;;;;;;;59.10;34.88;;;;;;;;;;5059270;28;20088;-83
2023/10/11 17:23:25;;;;;;;54.13;35.42;;;;;;;;;;5056362;28;20028;-82
2023/10/11 17:25:52;;;;;;;;;;;;;;;;;;5058887;28;20044;-83
2023/10/11 17:28:19;;;;;;;56.77;38.73;;;;;;;;;;5061728;28;20002;-82
2023/10/11 17:30:45;;;;;;;57.97;37.30;;;;;;;;;;5077372;28;20036;-82
2023/10/11 17:33:12;;;;;;;55.55;35.40;;;;;;;;;;5059083;28;20037;-82
2023/10/11 17:35:39;;;;;;;50.75;34.88;;;;;;;;;;5041413;28;20029;-82
2023/10/11 17:38:10;;;;;;;55.95;35.42;;;;;;;;;;5065577;28;20024;-82
2023/10/11 17:40:37;;;;;;;54.95;35.88;;;;;;;;;;5066517;28;20029;-82
2023/10/11 17:43:04;;;;;;;65.00;35.78;;;;;;;;;;5060282;28;20067;-82
2023/10/11 17:45:30;;;;;;;71.30;37.03;;;;;;;;;;5060421;28;20033;-82
2023/10/11 17:47:57;;;;;;;55.13;36.55;;;;;;;;;;5041649;28;20082;-82
2023/10/11 17:50:23;;;;;;;;;;;;;;;;;;5058775;28;20025;-82
2023/10/11 17:52:50;;;;;;;60.88;38.72;;;;;;;;;;5060478;28;19923;-82
2023/10/11 17:55:16;;;;;;;58.53;37.03;;;;;;;;;;5076300;28;20051;-82
2023/10/11 17:57:44;;;;;;;59.65;39.08;;;;;;;;;;5076970;28;20487;-82
2023/10/11 18:00:18;;;;;;;55.47;37.42;;;;;;;;;;5078920;28;20052;-82
2023/10/11 18:02:50;;;;;;;56.58;39.83;;;;;;;;;;5026475;28;20074;-82
2023/10/11 18:05:16;;;;;;;57.97;38.90;;;;;;;;;;5058239;28;20041;-82
2023/10/11 18:07:43;;;;;;;56.53;39.20;;;;;;;;;;5040971;28;20067;-82
2023/10/11 18:10:09;;;;;;;60.38;41.45;;;;;;;;;;5036588;28;20029;-83
2023/10/11 18:12:36;;;;;;;59.17;40.53;;;;;;;;;;5037926;28;20041;-82
2023/10/11 18:15:06;;;;;;;61.22;39.90;;;;;;;;;;5023538;28;20016;-82
2023/10/11 18:17:39;;;;;;;57.40;39.10;;;;;;;;;;5075716;28;20398;-85
2023/10/11 18:20:09;;;;;;;62.28;40.17;;;;;;;;;;5055389;28;20021;-84
2023/10/11 18:22:39;;;;;;;69.72;41.38;;;;;;;;;;5054188;28;20032;-83
2023/10/11 18:25:16;;;;;;;68.75;41.10;;;;;;;;;;5022241;28;21447;-82
2023/10/11 18:27:46;;;;;;;61.92;39.28;;;;;;;;;;5063516;28;20029;-82
2023/10/11 18:30:13;;;;;;;64.03;40.67;;;;;;;;;;5057007;28;20379;-82
2023/10/11 18:32:40;;;;;;;61.53;39.28;;;;;;;;;;5069580;28;20128;-83
2023/10/11 18:35:07;;;;;;;62.05;39.13;;;;;;;;;;5058066;28;20056;-82
2023/10/11 18:37:33;;;;;;;;;;;;;;;;;;5059405;28;20047;-83
2023/10/11 18:40:05;;;;;;;53.83;37.60;;;;;;;;;;5041392;28;19912;-82
2023/10/11 18:42:31;;;;;;;61.05;40.10;;;;;;;;;;5055191;28;20514;-83
2023/10/11 18:44:58;;;;;;;65.30;40.60;;;;;;;;;;5052376;28;20067;-83
2023/10/11 18:47:24;;;;;;;65.95;40.40;;;;;;;;;;5056997;28;20059;-83
2023/10/11 18:49:50;;;;;;;68.20;41.08;;;;;;;;;;5064942;28;20498;-84
2023/10/11 18:52:17;;;;;;;66.90;42.42;;;;;;;;;;5075438;28;20506;-83
2023/10/11 18:54:45;;;;;;;74.57;42.80;;;;;;;;;;5074874;28;20119;-83
2023/10/11 18:57:12;;;;;;;71.90;40.50;;;;;;;;;;5039498;28;20082;-82
2023/10/11 18:59:39;;;;;;;76.85;43.90;;;;;;;;;;5056235;28;20419;-82
2023/10/11 19:02:05;;;;;;;63.08;42.22;;;;;;;;;;5073947;28;20120;-82
2023/10/11 19:04:33;;;;;;;80.85;46.03;;;;;;;;;;5039252;28;20128;-82
2023/10/11 19:07:05;;;;;;;64.55;44.30;;;;;;;;;;5060455;28;20122;-82
2023/10/11 19:09:33;;;;;;;70.63;43.55;;;;;;;;;;5075411;28;20056;-82
2023/10/11 19:11:59;;;;;;;75.90;45.42;;;;;;;;;;5057208;28;20043;-82
2023/10/11 19:14:26;;;;;;;68.75;44.70;;;;;;;;;;5056313;28;20060;-82
2023/10/11 19:16:53;;;;;;;69.95;46.60;;;;;;;;;;5056562;28;20028;-82
2023/10/11 19:19:22;;;;;;;;;;;;;;;;;;5068012;28;20055;-82
2023/10/11 19:21:49;;;;;;;69.63;45.10;;;;;;;;;;5075820;28;20302;-82
2023/10/11 19:24:15;;;;;;;75.57;46.38;;;;;;;;;;5057061;28;20028;-84
2023/10/11 19:26:43;;;;;;;69.75;43.90;;;;;;;;;;5068976;28;20032;-85
2023/10/11 19:29:09;;;;;;;67.25;43.75;;;;;;;;;;5057386;28;20041;-85
2023/10/11 19:31:37;;;;;;;65.45;44.10;;;;;;;;;;5057020;28;20037;-82
2023/10/11 19:34:03;;;;;;;64.95;44.92;;;;;;;;;;5048940;28;20033;-83
2023/10/11 19:36:30;;;;;;;68.25;47.03;;;;;;;;;;5071005;28;20035;-83
2023/10/11 19:38:56;;;;;;;75.15;45.08;;;;;;;;;;5056220;28;20086;-82
2023/10/11 19:41:22;;;;;;;70.28;47.67;;;;;;;;;;5060947;28;20061;-82
2023/10/11 19:43:52;;;;;;;75.22;46.63;;;;;;;;;;5059201;28;20027;-82
2023/10/11 19:46:19;;;;;;;66.70;46.00;;;;;;;;;;5075504;28;20050;-82
2023/10/11 19:48:45;;;;;;;62.67;45.95;;;;;;;;;;5074070;28;20075;-82
2023/10/11 19:51:12;;;;;;;67.70;46.08;;;;;;;;;;5056558;28;20029;-83
2023/10/11 19:53:38;;;;;;;72.07;48.08;;;;;;;;;;5054575;28;20570;-83
2023/10/11 19:56:10;;;;;;;72.32;48.78;;;;;;;;;;5056100;28;20056;-82
2023/10/11 19:58:37;;;;;;;77.57;49.53;;;;;;;;;;5059523;28;20025;-83
2023/10/11 20:01:07;;;;;;;79.03;50.87;;;;;;;;;;5073949;28;20024;-82
2023/10/11 20:03:34;;;;;;;81.15;50.38;;;;;;;;;;5062179;28;20276;-81
2023/10/11 20:06:00;;;;;;;73.22;49.15;;;;;;;;;;5059202;28;20502;-83
2023/10/11 20:08:28;;;;;;;76.22;49.03;;;;;;;;;;5059809;28;20047;-83
2023/10/11 20:11:01;;;;;;;72.60;48.90;;;;;;;;;;5041154;28;20044;-82
2023/10/11 20:13:33;;;;;;;66.80;46.33;;;;;;;;;;5061745;28;20037;-83
2023/10/11 20:16:02;;;;;;;70.35;49.40;;;;;;;;;;5040293;28;20025;-83
2023/10/11 20:18:29;;;;;;;76.55;50.33;;;;;;;;;;5027173;28;20505;-83
2023/10/11 20:20:56;;;;;;;71.35;50.13;;;;;;;;;;5053411;28;20111;-83
2023/10/11 20:23:22;;;;;;;78.07;51.10;;;;;;;;;;5056360;28;20033;-83
2023/10/11 20:25:49;;;;;;;73.45;50.13;;;;;;;;;;5058455;28;20029;-83
2023/10/11 20:28:16;;;;;;;75.30;49.53;;;;;;;;;;5056009;28;20036;-83
2023/10/11 20:30:43;;;;;;;75.40;50.75;;;;;;;;;;5033877;28;20056;-83
2023/10/11 20:33:10;;;;;;;77.25;48.75;;;;;;;;;;5040488;28;20041;-83
2023/10/11 20:35:38;;;;;;;81.30;52.67;;;;;;;;;;5034733;28;20033;-83
2023/10/11 20:38:11;;;;;;;75.32;52.65;;;;;;;;;;5049612;28;20033;-83
2023/10/11 20:40:40;;;;;;;75.95;51.88;;;;;;;;;;5055565;28;20123;-83
2023/10/11 20:43:07;;;;;;;80.28;50.63;;;;;;;;;;5054703;28;20029;-83
2023/10/11 20:45:37;;;;;;;68.25;50.47;;;;;;;;;;5054382;28;20033;-83
2023/10/11 20:48:07;;;;;;;75.15;51.45;;;;;;;;;;5038933;28;20040;-84
2023/10/11 20:50:33;;;;;;;76.95;50.70;;;;;;;;;;5054473;28;20029;-84
2023/10/11 20:53:01;;;;;;;70.10;50.88;;;;;;;;;;5053381;28;20060;-84
2023/10/11 20:55:27;;;;;;;81.18;51.88;;;;;;;;;;5037279;28;20545;-84
2023/10/11 21:00:42;;;;;;;76.97;51.55;;;;;;;;;;5055372;28;20025;-83
2023/10/11 21:03:12;;;;;;;78.55;53.20;;;;;;;;;;5044975;28;20041;-84
2023/10/11 21:05:39;;;;;;;76.93;51.22;;;;;;;;;;5035562;28;20065;-84
2023/10/11 21:08:06;;;;;;;71.32;48.03;;;;;;;;;;5034537;28;20044;-84
2023/10/11 21:10:34;;;;;;;71.53;48.57;;;;;;;;;;5017376;28;20041;-84
2023/10/11 21:13:01;;;;;;;82.10;51.15;;;;;;;;;;5052866;28;20283;-84
2023/10/11 21:15:28;;;;;;;78.22;50.90;;;;;;;;;;5057380;28;20530;-83
2023/10/11 21:17:55;;;;;;;71.33;50.73;;;;;;;;;;5073547;28;20028;-84
2023/10/11 21:20:22;;;;;;;78.05;51.75;;;;;;;;;;5066226;28;20271;-84
2023/10/11 21:22:48;;;;;;;96.07;53.35;;;;;;;;;;5070682;28;20051;-84
2023/10/11 21:25:14;;;;;;;71.87;50.13;;;;;;;;;;5068909;28;20032;-84
2023/10/11 21:27:47;;;;;;;76.00;52.10;;;;;;;;;;5055623;28;20259;-84
2023/10/11 21:30:21;;;;;;;75.32;51.22;;;;;;;;;;5053369;28;20176;-84
2023/10/11 21:32:48;;;;;;;78.53;52.05;;;;;;;;;;5052292;28;20369;-84
2023/10/11 21:35:21;;;;;;;72.60;52.65;;;;;;;;;;5051878;28;20025;-83
2023/10/11 21:37:50;;;;;;;80.18;52.22;;;;;;;;;;5054111;28;20033;-84
2023/10/11 21:40:17;;;;;;;72.60;53.35;;;;;;;;;;5052799;28;20031;-83
2023/10/11 21:42:44;;;;;;;80.47;55.35;;;;;;;;;;5052772;28;20029;-84
2023/10/11 21:45:15;;;;;;;79.43;50.97;;;;;;;;;;5054087;28;20116;-84
2023/10/11 21:47:45;;;;;;;69.80;50.10;;;;;;;;;;5051653;28;20021;-84
2023/10/11 21:50:12;;;;;;;72.72;51.13;;;;;;;;;;5051941;28;20075;-85
2023/10/11 21:52:40;;;;;;;;;;;;;;;;;;5051345;28;20040;-85
2023/10/11 21:55:08;;;;;;;74.05;53.53;;;;;;;;;;5053160;28;19912;-83
2023/10/11 21:57:35;;;;;;;71.82;51.08;;;;;;;;;;5052964;28;20501;-85
2023/10/11 22:00:01;;;;;;;76.47;52.77;;;;;;;;;;5052230;28;20025;-84
2023/10/11 22:02:33;;;;;;;72.63;50.38;;;;;;;;;;5057380;28;20025;-84
2023/10/11 22:05:05;;;;;;;72.15;50.75;;;;;;;;;;5054521;28;20037;-84
2023/10/11 22:07:34;;;;;;;87.28;56.30;;;;;;;;;;5055818;28;20033;-85
2023/10/11 22:10:02;;;;;;;78.57;55.38;;;;;;;;;;5055682;28;20033;-85
2023/10/11 22:12:28;;;;;;;85.32;57.72;;;;;;;;;;5039130;28;20036;-84
2023/10/11 22:14:54;;;;;;;85.67;61.00;;;;;;;;;;5056077;28;20036;-84
2023/10/11 22:17:21;;;;;;;84.33;60.37;;;;;;;;;;5062399;28;20266;-84
2023/10/11 22:19:48;;;;;;;86.65;60.78;;;;;;;;;;5056474;28;20550;-84
2023/10/11 22:22:14;;;;;;;95.80;59.70;;;;;;;;;;5065519;28;20024;-84
2023/10/11 22:24:43;;;;;;;75.95;53.20;;;;;;;;;;5046027;28;20064;-84
2023/10/11 22:27:09;;;;;;;81.15;55.45;;;;;;;;;;5065703;28;20491;-84
2023/10/11 22:29:37;;;;;;;81.10;56.97;;;;;;;;;;5076678;28;20029;-84
2023/10/11 22:32:04;;;;;;;75.47;53.10;;;;;;;;;;5075526;28;20357;-84
2023/10/11 22:34:32;;;;;;;83.03;58.42;;;;;;;;;;5075141;28;20230;-84
2023/10/11 22:36:59;;;;;;;78.10;53.92;;;;;;;;;;5074631;28;20048;-84
2023/10/11 22:39:26;;;;;;;90.90;63.33;;;;;;;;;;5054204;28;20025;-84
2023/10/11 22:41:52;;;;;;;80.73;57.80;;;;;;;;;;5069228;28;20517;-85
2023/10/11 22:44:18;;;;;;;83.17;58.13;;;;;;;;;;5066751;28;20634;-84
2023/10/11 22:46:45;;;;;;;86.65;58.38;;;;;;;;;;5072723;28;20064;-84
2023/10/11 22:49:11;;;;;;;88.95;59.05;;;;;;;;;;5073337;28;20043;-85
2023/10/11 22:51:38;;;;;;;84.53;59.60;;;;;;;;;;5066633;28;20556;-85
2023/10/11 22:54:04;;;;;;;84.00;59.72;;;;;;;;;;5076776;28;20029;-84
2023/10/11 22:56:31;;;;;;;84.68;58.55;;;;;;;;;;5074795;28;20032;-84
2023/10/11 22:58:57;;;;;;;89.80;63.42;;;;;;;;;;5059210;28;20073;-84
2023/10/11 23:01:23;;;;;;;96.72;62.25;;;;;;;;;;5063468;28;20021;-84
2023/10/11 23:03:50;;;;;;;89.43;61.97;;;;;;;;;;5038653;28;20032;-85
2023/10/11 23:06:17;;;;;;;87.18;62.03;;;;;;;;;;5056441;28;20104;-84
2023/10/11 23:08:43;;;;;;;83.53;58.70;;;;;;;;;;5056871;28;20040;-84
2023/10/11 23:11:16;;;;;;;96.47;59.13;;;;;;;;;;5061934;28;20036;-85
2023/10/11 23:13:48;;;;;;;87.03;58.80;;;;;;;;;;5073630;28;20284;-85
2023/10/11 23:16:29;;;;;;;83.15;57.40;;;;;;;;;;5063917;28;20535;-84
2023/10/11 23:19:18;;;;;;;86.28;60.15;;;;;;;;;;5056780;28;20505;-84
2023/10/11 23:21:45;;;;;;;83.35;59.35;;;;;;;;;;5060517;28;20025;-84
2023/10/11 23:24:16;;;;;;;82.93;58.75;;;;;;;;;;5054631;28;20037;-84
2023/10/11 23:26:42;;;;;;;85.55;57.50;;;;;;;;;;5056504;28;20033;-85
2023/10/11 23:29:12;;;;;;;103.17;66.13;;;;;;;;;;5056433;28;20040;-85
2023/10/11 23:31:38;;;;;;;91.68;61.50;;;;;;;;;;5063063;28;20271;-84
2023/10/11 23:34:12;;;;;;;96.95;63.42;;;;;;;;;;5073956;28;20032;-84
2023/10/11 23:36:40;;;;;;;89.57;64.78;;;;;;;;;;5057275;28;20058;-84
2023/10/11 23:39:07;;;;;;;90.15;62.58;;;;;;;;;;5075448;28;20059;-84
2023/10/11 23:41:46;;;;;;;92.43;63.47;;;;;;;;;;5069808;28;20463;-84
2023/10/11 23:44:19;;;;;;;87.80;61.00;;;;;;;;;;5055246;28;20025;-84
2023/10/11 23:46:57;;;;;;;91.90;63.60;;;;;;;;;;5067642;28;20029;-84
2023/10/11 23:49:31;;;;;;;87.68;62.22;;;;;;;;;;5056407;28;20099;-84
2023/10/11 23:52:00;;;;;;;90.05;61.97;;;;;;;;;;5054750;28;20386;-84